sensor_id;sensor_type;location;lat;lon;timestamp;temperature;humidity
29207;DHT22;16247;50.840;4.382;2023-07-16T00:25:18;18.90;99.90
29207;DHT22;16247;50.840;4.382;2023-07-16T00:28:50;18.70;99.90
29207;DHT22;16247;50.840;4.382;2023-07-16T00:41:48;18.90;99.90
29207;DHT22;16247;50.840;4.382;2023-07-16T00:44:21;19.00;99.90
29207;DHT22;16247;50.840;4.382;2023-07-16T00:46:54;18.90;99.90
29207;DHT22;16247;50.840;4.382;2023-07-16T00:49:43;18.70;99.90
29207;DHT22;16247;50.840;4.382;2023-07-16T01:03:02;18.60;99.90
29207;DHT22;16247;50.840;4.382;2023-07-16T01:11:48;18.30;99.90
29207;DHT22;16247;50.840;4.382;2023-07-16T02:30:48;17.50;99.90
29207;DHT22;16247;50.840;4.382;2023-07-16T02:39:49;17.40;99.90
29207;DHT22;16247;50.840;4.382;2023-07-16T02:42:38;17.50;99.90
29207;DHT22;16247;50.840;4.382;2023-07-16T02:45:26;17.40;99.90
29207;DHT22;16247;50.840;4.382;2023-07-16T02:47:57;17.30;99.90
29207;DHT22;16247;50.840;4.382;2023-07-16T02:50:28;17.30;99.90
29207;DHT22;16247;50.840;4.382;2023-07-16T02:53:08;17.40;99.90
29207;DHT22;16247;50.840;4.382;2023-07-16T02:55:44;17.10;99.90
29207;DHT22;16247;50.840;4.382;2023-07-16T02:58:42;17.40;99.90
29207;DHT22;16247;50.840;4.382;2023-07-16T03:04:34;17.50;99.90
29207;DHT22;16247;50.840;4.382;2023-07-16T03:07:09;17.60;99.90
29207;DHT22;16247;50.840;4.382;2023-07-16T03:33:28;17.10;99.90
29207;DHT22;16247;50.840;4.382;2023-07-16T03:36:45;16.90;99.90
29207;DHT22;16247;50.840;4.382;2023-07-16T03:40:37;17.00;99.90
29207;DHT22;16247;50.840;4.382;2023-07-16T04:11:52;16.80;99.90
29207;DHT22;16247;50.840;4.382;2023-07-16T04:14:17;16.90;99.90
29207;DHT22;16247;50.840;4.382;2023-07-16T04:16:43;17.30;99.90
29207;DHT22;16247;50.840;4.382;2023-07-16T04:19:09;17.60;99.90
29207;DHT22;16247;50.840;4.382;2023-07-16T04:21:35;17.70;99.90
29207;DHT22;16247;50.840;4.382;2023-07-16T04:24:02;17.60;99.90
29207;DHT22;16247;50.840;4.382;2023-07-16T04:26:28;17.70;99.90
29207;DHT22;16247;50.840;4.382;2023-07-16T04:28:54;17.60;99.90
29207;DHT22;16247;50.840;4.382;2023-07-16T04:31:20;17.70;99.90
29207;DHT22;16247;50.840;4.382;2023-07-16T04:33:45;17.80;99.90
29207;DHT22;16247;50.840;4.382;2023-07-16T04:36:11;17.70;99.90
29207;DHT22;16247;50.840;4.382;2023-07-16T04:38:37;17.80;99.90
29207;DHT22;16247;50.840;4.382;2023-07-16T04:41:02;18.00;99.90
29207;DHT22;16247;50.840;4.382;2023-07-16T04:43:28;18.10;99.90
29207;DHT22;16247;50.840;4.382;2023-07-16T04:45:54;18.30;99.90
29207;DHT22;16247;50.840;4.382;2023-07-16T04:48:19;18.30;99.90
29207;DHT22;16247;50.840;4.382;2023-07-16T04:50:45;18.10;99.90
29207;DHT22;16247;50.840;4.382;2023-07-16T04:53:10;17.90;99.90
29207;DHT22;16247;50.840;4.382;2023-07-16T04:55:37;18.00;99.90
29207;DHT22;16247;50.840;4.382;2023-07-16T04:58:03;18.00;99.90
29207;DHT22;16247;50.840;4.382;2023-07-16T05:00:28;18.10;99.90
29207;DHT22;16247;50.840;4.382;2023-07-16T05:02:54;18.20;99.90
29207;DHT22;16247;50.840;4.382;2023-07-16T05:05:20;18.00;99.90
29207;DHT22;16247;50.840;4.382;2023-07-16T05:07:45;18.10;99.90
29207;DHT22;16247;50.840;4.382;2023-07-16T05:10:11;18.20;99.90
29207;DHT22;16247;50.840;4.382;2023-07-16T05:12:37;18.10;99.90
29207;DHT22;16247;50.840;4.382;2023-07-16T05:15:02;18.00;99.90
29207;DHT22;16247;50.840;4.382;2023-07-16T05:17:28;17.90;99.90
29207;DHT22;16247;50.840;4.382;2023-07-16T05:19:54;18.00;99.90
29207;DHT22;16247;50.840;4.382;2023-07-16T05:22:19;18.00;99.90
29207;DHT22;16247;50.840;4.382;2023-07-16T05:24:45;18.10;99.90
29207;DHT22;16247;50.840;4.382;2023-07-16T05:27:11;18.00;99.90
29207;DHT22;16247;50.840;4.382;2023-07-16T05:29:36;17.90;99.90
29207;DHT22;16247;50.840;4.382;2023-07-16T05:32:02;18.00;99.90
29207;DHT22;16247;50.840;4.382;2023-07-16T05:34:29;18.00;99.90
29207;DHT22;16247;50.840;4.382;2023-07-16T05:36:55;17.90;99.90
29207;DHT22;16247;50.840;4.382;2023-07-16T05:39:21;17.80;99.90
29207;DHT22;16247;50.840;4.382;2023-07-16T05:41:47;17.60;99.90
29207;DHT22;16247;50.840;4.382;2023-07-16T05:44:13;17.60;99.90
29207;DHT22;16247;50.840;4.382;2023-07-16T05:46:39;17.70;99.90
29207;DHT22;16247;50.840;4.382;2023-07-16T05:49:04;17.90;99.90
29207;DHT22;16247;50.840;4.382;2023-07-16T05:51:30;17.80;99.90
29207;DHT22;16247;50.840;4.382;2023-07-16T05:53:55;17.90;99.90
29207;DHT22;16247;50.840;4.382;2023-07-16T05:56:21;17.90;99.90
29207;DHT22;16247;50.840;4.382;2023-07-16T05:58:47;17.90;99.90
29207;DHT22;16247;50.840;4.382;2023-07-16T06:01:12;17.80;99.90
29207;DHT22;16247;50.840;4.382;2023-07-16T06:03:38;17.90;99.90
29207;DHT22;16247;50.840;4.382;2023-07-16T06:06:04;18.10;99.90
29207;DHT22;16247;50.840;4.382;2023-07-16T06:08:30;18.10;99.90
29207;DHT22;16247;50.840;4.382;2023-07-16T06:10:56;18.20;99.90
29207;DHT22;16247;50.840;4.382;2023-07-16T06:13:21;18.30;99.90
29207;DHT22;16247;50.840;4.382;2023-07-16T06:15:47;18.40;99.90
29207;DHT22;16247;50.840;4.382;2023-07-16T06:18:13;18.50;99.90
29207;DHT22;16247;50.840;4.382;2023-07-16T06:20:42;18.40;99.90
29207;DHT22;16247;50.840;4.382;2023-07-16T06:23:08;18.40;99.90
29207;DHT22;16247;50.840;4.382;2023-07-16T06:25:34;18.50;99.90
29207;DHT22;16247;50.840;4.382;2023-07-16T06:27:59;18.80;99.90
29207;DHT22;16247;50.840;4.382;2023-07-16T06:30:25;19.10;99.90
29207;DHT22;16247;50.840;4.382;2023-07-16T06:32:50;19.30;99.90
29207;DHT22;16247;50.840;4.382;2023-07-16T20:42:57;20.10;99.90
29207;DHT22;16247;50.840;4.382;2023-07-16T20:45:24;20.10;99.90
29207;DHT22;16247;50.840;4.382;2023-07-16T20:47:51;20.20;99.90
29207;DHT22;16247;50.840;4.382;2023-07-16T20:50:19;20.30;99.90
29207;DHT22;16247;50.840;4.382;2023-07-16T20:52:46;20.30;99.90
29207;DHT22;16247;50.840;4.382;2023-07-16T20:55:12;20.30;99.90
29207;DHT22;16247;50.840;4.382;2023-07-16T20:57:39;20.40;99.90
29207;DHT22;16247;50.840;4.382;2023-07-16T21:00:09;20.30;99.90
29207;DHT22;16247;50.840;4.382;2023-07-16T21:02:57;20.40;99.90
29207;DHT22;16247;50.840;4.382;2023-07-16T21:05:24;20.40;99.90
